sensor_id;sensor_type;location;lat;lon;timestamp;P1;durP1;ratioP1;P2;durP2;ratioP2
42140;SDS011;27809;51.864;5.646;2022-09-12T00:00:10;14.43;;;10.20;;
42140;SDS011;27809;51.864;5.646;2022-09-12T00:02:35;14.65;;;10.07;;
42140;SDS011;27809;51.864;5.646;2022-09-12T00:05:01;16.77;;;9.52;;
42140;SDS011;27809;51.864;5.646;2022-09-12T00:07:27;16.42;;;9.77;;
42140;SDS011;27809;51.864;5.646;2022-09-12T00:09:53;11.77;;;9.05;;
42140;SDS011;27809;51.864;5.646;2022-09-12T00:12:18;16.08;;;10.65;;
42140;SDS011;27809;51.864;5.646;2022-09-12T00:14:44;16.02;;;9.02;;
42140;SDS011;27809;51.864;5.646;2022-09-12T00:17:09;16.60;;;10.60;;
42140;SDS011;27809;51.864;5.646;2022-09-12T00:19:36;17.13;;;10.88;;
42140;SDS011;27809;51.864;5.646;2022-09-12T00:22:02;17.08;;;10.95;;
42140;SDS011;27809;51.864;5.646;2022-09-12T00:24:27;16.85;;;11.57;;
42140;SDS011;27809;51.864;5.646;2022-09-12T00:26:53;19.92;;;10.75;;
42140;SDS011;27809;51.864;5.646;2022-09-12T00:29:19;16.90;;;10.75;;
42140;SDS011;27809;51.864;5.646;2022-09-12T00:31:45;16.83;;;11.15;;
42140;SDS011;27809;51.864;5.646;2022-09-12T00:34:11;18.55;;;12.95;;
42140;SDS011;27809;51.864;5.646;2022-09-12T00:36:37;16.17;;;11.30;;
42140;SDS011;27809;51.864;5.646;2022-09-12T00:39:03;19.67;;;10.82;;
42140;SDS011;27809;51.864;5.646;2022-09-12T00:41:31;17.00;;;11.32;;
42140;SDS011;27809;51.864;5.646;2022-09-12T00:44:38;17.23;;;10.02;;
42140;SDS011;27809;51.864;5.646;2022-09-12T00:46:48;25.92;;;10.43;;
42140;SDS011;27809;51.864;5.646;2022-09-12T00:49:34;16.17;;;11.45;;
42140;SDS011;27809;51.864;5.646;2022-09-12T00:52:10;16.60;;;10.30;;
42140;SDS011;27809;51.864;5.646;2022-09-12T00:54:46;18.85;;;10.40;;
42140;SDS011;27809;51.864;5.646;2022-09-12T00:57:17;16.23;;;11.65;;
42140;SDS011;27809;51.864;5.646;2022-09-12T00:59:50;14.07;;;10.02;;
42140;SDS011;27809;51.864;5.646;2022-09-12T01:02:19;20.95;;;10.75;;
42140;SDS011;27809;51.864;5.646;2022-09-12T01:04:45;19.55;;;12.88;;
42140;SDS011;27809;51.864;5.646;2022-09-12T01:07:11;19.75;;;13.73;;
42140;SDS011;27809;51.864;5.646;2022-09-12T01:09:39;20.00;;;10.95;;
42140;SDS011;27809;51.864;5.646;2022-09-12T01:12:08;22.55;;;12.40;;
42140;SDS011;27809;51.864;5.646;2022-09-12T01:14:33;17.02;;;11.43;;
42140;SDS011;27809;51.864;5.646;2022-09-12T01:16:59;26.08;;;11.93;;
42140;SDS011;27809;51.864;5.646;2022-09-12T01:22:10;19.42;;;11.10;;
42140;SDS011;27809;51.864;5.646;2022-09-12T01:28:42;17.25;;;10.35;;
42140;SDS011;27809;51.864;5.646;2022-09-12T01:34:16;15.60;;;9.98;;
42140;SDS011;27809;51.864;5.646;2022-09-12T01:48:05;21.40;;;13.68;;
42140;SDS011;27809;51.864;5.646;2022-09-12T01:50:46;25.17;;;14.38;;
42140;SDS011;27809;51.864;5.646;2022-09-12T01:53:27;21.90;;;12.88;;
42140;SDS011;27809;51.864;5.646;2022-09-12T01:56:02;24.00;;;13.85;;
42140;SDS011;27809;51.864;5.646;2022-09-12T01:58:41;18.20;;;12.38;;
42140;SDS011;27809;51.864;5.646;2022-09-12T02:01:26;21.33;;;12.93;;
42140;SDS011;27809;51.864;5.646;2022-09-12T02:04:05;21.83;;;11.95;;
42140;SDS011;27809;51.864;5.646;2022-09-12T02:06:49;21.90;;;13.95;;
42140;SDS011;27809;51.864;5.646;2022-09-12T02:09:25;14.93;;;11.05;;
42140;SDS011;27809;51.864;5.646;2022-09-12T02:11:58;22.33;;;12.70;;
42140;SDS011;27809;51.864;5.646;2022-09-12T02:14:33;18.20;;;11.93;;
42140;SDS011;27809;51.864;5.646;2022-09-12T02:17:05;19.58;;;11.60;;
42140;SDS011;27809;51.864;5.646;2022-09-12T02:19:39;23.60;;;12.85;;
42140;SDS011;27809;51.864;5.646;2022-09-12T02:22:12;21.00;;;12.23;;
42140;SDS011;27809;51.864;5.646;2022-09-12T02:24:42;20.17;;;13.07;;
42140;SDS011;27809;51.864;5.646;2022-09-12T02:27:13;23.90;;;12.43;;
42140;SDS011;27809;51.864;5.646;2022-09-12T02:29:42;18.95;;;12.50;;
42140;SDS011;27809;51.864;5.646;2022-09-12T02:32:11;7.05;;;3.38;;
42140;SDS011;27809;51.864;5.646;2022-09-12T02:34:44;3.47;;;1.98;;
42140;SDS011;27809;51.864;5.646;2022-09-12T02:40:02;10.68;;;5.05;;
42140;SDS011;27809;51.864;5.646;2022-09-12T02:42:30;11.90;;;8.35;;
42140;SDS011;27809;51.864;5.646;2022-09-12T02:44:56;13.05;;;8.98;;
42140;SDS011;27809;51.864;5.646;2022-09-12T02:47:26;16.92;;;10.82;;
42140;SDS011;27809;51.864;5.646;2022-09-12T02:49:56;16.55;;;10.65;;
42140;SDS011;27809;51.864;5.646;2022-09-12T02:52:23;17.05;;;12.02;;
42140;SDS011;27809;51.864;5.646;2022-09-12T02:54:49;19.90;;;11.73;;
42140;SDS011;27809;51.864;5.646;2022-09-12T02:57:16;19.88;;;13.43;;
42140;SDS011;27809;51.864;5.646;2022-09-12T02:59:44;21.38;;;13.23;;
42140;SDS011;27809;51.864;5.646;2022-09-12T03:07:55;22.38;;;13.38;;
42140;SDS011;27809;51.864;5.646;2022-09-12T03:12:57;22.80;;;13.25;;
42140;SDS011;27809;51.864;5.646;2022-09-12T03:18:22;21.02;;;13.73;;
42140;SDS011;27809;51.864;5.646;2022-09-12T03:23:54;27.70;;;14.07;;
42140;SDS011;27809;51.864;5.646;2022-09-12T03:26:56;21.05;;;12.63;;
42140;SDS011;27809;51.864;5.646;2022-09-12T03:29:40;20.17;;;12.10;;
42140;SDS011;27809;51.864;5.646;2022-09-12T03:32:07;22.02;;;14.20;;
42140;SDS011;27809;51.864;5.646;2022-09-12T03:34:33;17.60;;;10.43;;
42140;SDS011;27809;51.864;5.646;2022-09-12T03:36:58;20.65;;;11.75;;
42140;SDS011;27809;51.864;5.646;2022-09-12T03:39:24;18.20;;;12.13;;
42140;SDS011;27809;51.864;5.646;2022-09-12T03:41:50;23.23;;;12.43;;
42140;SDS011;27809;51.864;5.646;2022-09-12T03:44:17;19.35;;;12.13;;
42140;SDS011;27809;51.864;5.646;2022-09-12T03:46:43;21.20;;;11.73;;
42140;SDS011;27809;51.864;5.646;2022-09-12T03:49:08;20.02;;;11.85;;
42140;SDS011;27809;51.864;5.646;2022-09-12T03:51:35;18.75;;;10.95;;
42140;SDS011;27809;51.864;5.646;2022-09-12T03:54:01;17.73;;;9.57;;
42140;SDS011;27809;51.864;5.646;2022-09-12T03:56:26;20.48;;;11.18;;
42140;SDS011;27809;51.864;5.646;2022-09-12T03:58:52;20.65;;;12.43;;
42140;SDS011;27809;51.864;5.646;2022-09-12T04:01:18;19.60;;;10.40;;
42140;SDS011;27809;51.864;5.646;2022-09-12T04:03:45;61.28;;;13.77;;
42140;SDS011;27809;51.864;5.646;2022-09-12T04:06:13;15.63;;;10.45;;
42140;SDS011;27809;51.864;5.646;2022-09-12T04:08:40;14.00;;;10.02;;
42140;SDS011;27809;51.864;5.646;2022-09-12T04:11:08;20.52;;;11.07;;
42140;SDS011;27809;51.864;5.646;2022-09-12T04:13:35;14.55;;;8.75;;
42140;SDS011;27809;51.864;5.646;2022-09-12T04:16:02;19.17;;;6.93;;
42140;SDS011;27809;51.864;5.646;2022-09-12T04:18:28;12.93;;;8.48;;
42140;SDS011;27809;51.864;5.646;2022-09-12T04:20:54;14.23;;;7.57;;
42140;SDS011;27809;51.864;5.646;2022-09-12T04:23:20;9.20;;;5.78;;
42140;SDS011;27809;51.864;5.646;2022-09-12T04:25:52;15.95;;;7.32;;
42140;SDS011;27809;51.864;5.646;2022-09-12T04:30:44;14.23;;;6.38;;
42140;SDS011;27809;51.864;5.646;2022-09-12T04:33:09;12.15;;;7.40;;
42140;SDS011;27809;51.864;5.646;2022-09-12T04:35:35;9.48;;;6.50;;
42140;SDS011;27809;51.864;5.646;2022-09-12T04:38:01;16.35;;;9.45;;
42140;SDS011;27809;51.864;5.646;2022-09-12T04:40:28;17.17;;;8.43;;
42140;SDS011;27809;51.864;5.646;2022-09-12T04:42:54;16.70;;;9.82;;
42140;SDS011;27809;51.864;5.646;2022-09-12T04:45:20;18.33;;;11.10;;
42140;SDS011;27809;51.864;5.646;2022-09-12T04:47:46;14.23;;;7.45;;
42140;SDS011;27809;51.864;5.646;2022-09-12T04:50:11;15.70;;;7.85;;
42140;SDS011;27809;51.864;5.646;2022-09-12T04:52:38;14.63;;;9.63;;
42140;SDS011;27809;51.864;5.646;2022-09-12T04:55:04;13.95;;;8.48;;
42140;SDS011;27809;51.864;5.646;2022-09-12T04:57:31;15.65;;;7.85;;
42140;SDS011;27809;51.864;5.646;2022-09-12T04:59:56;14.73;;;7.40;;
42140;SDS011;27809;51.864;5.646;2022-09-12T05:02:23;11.13;;;5.88;;
42140;SDS011;27809;51.864;5.646;2022-09-12T05:04:49;12.20;;;9.13;;
42140;SDS011;27809;51.864;5.646;2022-09-12T05:07:14;11.25;;;6.40;;
42140;SDS011;27809;51.864;5.646;2022-09-12T05:09:40;12.00;;;5.72;;
42140;SDS011;27809;51.864;5.646;2022-09-12T05:12:05;10.77;;;6.47;;
42140;SDS011;27809;51.864;5.646;2022-09-12T05:14:32;15.63;;;6.03;;
42140;SDS011;27809;51.864;5.646;2022-09-12T05:16:58;11.68;;;7.15;;
42140;SDS011;27809;51.864;5.646;2022-09-12T05:19:25;17.90;;;8.77;;
42140;SDS011;27809;51.864;5.646;2022-09-12T05:21:51;17.55;;;9.80;;
42140;SDS011;27809;51.864;5.646;2022-09-12T05:24:17;16.02;;;10.13;;
42140;SDS011;27809;51.864;5.646;2022-09-12T05:26:42;18.23;;;9.15;;
42140;SDS011;27809;51.864;5.646;2022-09-12T05:29:08;17.50;;;10.00;;
42140;SDS011;27809;51.864;5.646;2022-09-12T05:31:33;18.10;;;11.25;;
42140;SDS011;27809;51.864;5.646;2022-09-12T05:33:59;22.27;;;9.43;;
42140;SDS011;27809;51.864;5.646;2022-09-12T05:36:26;14.70;;;9.15;;
42140;SDS011;27809;51.864;5.646;2022-09-12T05:38:53;14.50;;;8.23;;
42140;SDS011;27809;51.864;5.646;2022-09-12T05:41:23;32.83;;;9.35;;
42140;SDS011;27809;51.864;5.646;2022-09-12T05:43:51;19.77;;;9.73;;
42140;SDS011;27809;51.864;5.646;2022-09-12T05:46:18;21.17;;;9.60;;
42140;SDS011;27809;51.864;5.646;2022-09-12T05:48:45;26.67;;;10.73;;
42140;SDS011;27809;51.864;5.646;2022-09-12T05:51:16;21.52;;;11.73;;
42140;SDS011;27809;51.864;5.646;2022-09-12T05:53:56;25.17;;;12.10;;
42140;SDS011;27809;51.864;5.646;2022-09-12T05:56:24;27.50;;;13.15;;
42140;SDS011;27809;51.864;5.646;2022-09-12T05:58:58;28.55;;;13.07;;
42140;SDS011;27809;51.864;5.646;2022-09-12T06:01:24;29.20;;;15.30;;
42140;SDS011;27809;51.864;5.646;2022-09-12T06:03:51;25.10;;;14.30;;
42140;SDS011;27809;51.864;5.646;2022-09-12T06:06:19;23.25;;;13.90;;
42140;SDS011;27809;51.864;5.646;2022-09-12T06:08:47;34.78;;;15.75;;
42140;SDS011;27809;51.864;5.646;2022-09-12T06:11:15;31.70;;;16.35;;
42140;SDS011;27809;51.864;5.646;2022-09-12T06:13:42;37.25;;;17.20;;
42140;SDS011;27809;51.864;5.646;2022-09-12T06:16:09;43.55;;;18.83;;
42140;SDS011;27809;51.864;5.646;2022-09-12T06:18:37;36.03;;;18.38;;
42140;SDS011;27809;51.864;5.646;2022-09-12T06:21:05;36.38;;;18.17;;
42140;SDS011;27809;51.864;5.646;2022-09-12T06:23:35;40.22;;;18.45;;
42140;SDS011;27809;51.864;5.646;2022-09-12T06:26:01;37.38;;;18.45;;
42140;SDS011;27809;51.864;5.646;2022-09-12T06:28:28;40.20;;;18.70;;
42140;SDS011;27809;51.864;5.646;2022-09-12T06:30:59;43.50;;;20.63;;
42140;SDS011;27809;51.864;5.646;2022-09-12T06:33:37;36.53;;;17.58;;
42140;SDS011;27809;51.864;5.646;2022-09-12T06:36:04;42.60;;;20.00;;
42140;SDS011;27809;51.864;5.646;2022-09-12T06:38:32;44.90;;;21.92;;
42140;SDS011;27809;51.864;5.646;2022-09-12T06:40:58;42.85;;;21.05;;
42140;SDS011;27809;51.864;5.646;2022-09-12T06:43:24;49.75;;;22.20;;
42140;SDS011;27809;51.864;5.646;2022-09-12T06:45:50;47.53;;;20.55;;
42140;SDS011;27809;51.864;5.646;2022-09-12T06:48:16;49.72;;;21.67;;
42140;SDS011;27809;51.864;5.646;2022-09-12T06:50:41;53.63;;;25.15;;
42140;SDS011;27809;51.864;5.646;2022-09-12T06:53:07;50.22;;;23.17;;
42140;SDS011;27809;51.864;5.646;2022-09-12T06:55:33;38.35;;;19.25;;
42140;SDS011;27809;51.864;5.646;2022-09-12T06:57:59;43.78;;;22.38;;
42140;SDS011;27809;51.864;5.646;2022-09-12T07:00:24;46.00;;;22.67;;
42140;SDS011;27809;51.864;5.646;2022-09-12T07:02:53;57.95;;;26.77;;
42140;SDS011;27809;51.864;5.646;2022-09-12T07:05:20;66.15;;;28.63;;
42140;SDS011;27809;51.864;5.646;2022-09-12T07:07:46;57.97;;;27.85;;
42140;SDS011;27809;51.864;5.646;2022-09-12T07:10:12;50.38;;;26.83;;
42140;SDS011;27809;51.864;5.646;2022-09-12T07:12:37;53.58;;;25.08;;
42140;SDS011;27809;51.864;5.646;2022-09-12T07:15:03;52.55;;;27.42;;
42140;SDS011;27809;51.864;5.646;2022-09-12T07:17:29;64.35;;;28.63;;
42140;SDS011;27809;51.864;5.646;2022-09-12T07:19:54;57.38;;;27.27;;
42140;SDS011;27809;51.864;5.646;2022-09-12T07:22:20;52.42;;;27.42;;
42140;SDS011;27809;51.864;5.646;2022-09-12T07:24:45;50.38;;;25.00;;
42140;SDS011;27809;51.864;5.646;2022-09-12T07:27:11;42.65;;;22.73;;
42140;SDS011;27809;51.864;5.646;2022-09-12T07:29:37;49.83;;;24.58;;
42140;SDS011;27809;51.864;5.646;2022-09-12T07:32:02;52.50;;;27.33;;
42140;SDS011;27809;51.864;5.646;2022-09-12T07:34:29;48.25;;;25.70;;
42140;SDS011;27809;51.864;5.646;2022-09-12T07:36:55;42.47;;;21.42;;
42140;SDS011;27809;51.864;5.646;2022-09-12T07:39:20;36.22;;;20.90;;
42140;SDS011;27809;51.864;5.646;2022-09-12T07:41:46;43.33;;;22.35;;
42140;SDS011;27809;51.864;5.646;2022-09-12T07:44:11;48.35;;;23.55;;
42140;SDS011;27809;51.864;5.646;2022-09-12T07:46:37;48.63;;;22.67;;
42140;SDS011;27809;51.864;5.646;2022-09-12T07:49:03;43.28;;;23.52;;
42140;SDS011;27809;51.864;5.646;2022-09-12T07:51:29;37.53;;;19.63;;
42140;SDS011;27809;51.864;5.646;2022-09-12T07:53:55;46.92;;;23.17;;
42140;SDS011;27809;51.864;5.646;2022-09-12T07:56:22;30.88;;;18.42;;
42140;SDS011;27809;51.864;5.646;2022-09-12T07:58:48;29.35;;;17.33;;
42140;SDS011;27809;51.864;5.646;2022-09-12T08:01:15;35.22;;;19.17;;
42140;SDS011;27809;51.864;5.646;2022-09-12T08:03:43;37.47;;;19.63;;
42140;SDS011;27809;51.864;5.646;2022-09-12T08:06:12;28.48;;;17.58;;
42140;SDS011;27809;51.864;5.646;2022-09-12T08:08:40;28.88;;;18.75;;
42140;SDS011;27809;51.864;5.646;2022-09-12T08:11:07;25.77;;;16.00;;
42140;SDS011;27809;51.864;5.646;2022-09-12T08:13:35;34.03;;;17.90;;
42140;SDS011;27809;51.864;5.646;2022-09-12T08:16:03;27.02;;;16.85;;
42140;SDS011;27809;51.864;5.646;2022-09-12T08:18:30;30.30;;;17.38;;
42140;SDS011;27809;51.864;5.646;2022-09-12T08:21:00;23.73;;;14.90;;
42140;SDS011;27809;51.864;5.646;2022-09-12T08:23:30;26.00;;;15.52;;
42140;SDS011;27809;51.864;5.646;2022-09-12T08:25:57;6.30;;;3.67;;
42140;SDS011;27809;51.864;5.646;2022-09-12T08:28:25;11.23;;;6.97;;
42140;SDS011;27809;51.864;5.646;2022-09-12T08:30:51;6.55;;;3.42;;
42140;SDS011;27809;51.864;5.646;2022-09-12T08:33:17;12.55;;;6.68;;
42140;SDS011;27809;51.864;5.646;2022-09-12T08:35:43;12.93;;;7.13;;
42140;SDS011;27809;51.864;5.646;2022-09-12T08:38:09;7.32;;;4.45;;
42140;SDS011;27809;51.864;5.646;2022-09-12T08:40:41;15.38;;;9.77;;
42140;SDS011;27809;51.864;5.646;2022-09-12T08:46:01;9.40;;;6.45;;
42140;SDS011;27809;51.864;5.646;2022-09-12T08:48:34;12.07;;;7.10;;
42140;SDS011;27809;51.864;5.646;2022-09-12T08:51:01;10.70;;;6.35;;
42140;SDS011;27809;51.864;5.646;2022-09-12T08:53:29;8.25;;;6.18;;
42140;SDS011;27809;51.864;5.646;2022-09-12T08:55:57;14.25;;;8.02;;
42140;SDS011;27809;51.864;5.646;2022-09-12T08:58:24;15.00;;;8.07;;
42140;SDS011;27809;51.864;5.646;2022-09-12T09:00:57;12.63;;;7.55;;
42140;SDS011;27809;51.864;5.646;2022-09-12T09:06:56;7.72;;;6.05;;
42140;SDS011;27809;51.864;5.646;2022-09-12T09:12:50;11.73;;;5.90;;
42140;SDS011;27809;51.864;5.646;2022-09-12T09:18:21;11.02;;;7.53;;
42140;SDS011;27809;51.864;5.646;2022-09-12T09:21:01;13.00;;;7.25;;
42140;SDS011;27809;51.864;5.646;2022-09-12T09:23:36;8.98;;;6.78;;
42140;SDS011;27809;51.864;5.646;2022-09-12T09:26:16;13.13;;;6.20;;
42140;SDS011;27809;51.864;5.646;2022-09-12T09:28:54;10.73;;;6.50;;
42140;SDS011;27809;51.864;5.646;2022-09-12T09:31:29;10.60;;;6.70;;
42140;SDS011;27809;51.864;5.646;2022-09-12T09:34:05;11.45;;;7.18;;
42140;SDS011;27809;51.864;5.646;2022-09-12T09:36:54;9.18;;;6.53;;
42140;SDS011;27809;51.864;5.646;2022-09-12T09:39:36;12.68;;;8.52;;
42140;SDS011;27809;51.864;5.646;2022-09-12T09:42:23;10.55;;;6.60;;
42140;SDS011;27809;51.864;5.646;2022-09-12T09:45:14;11.60;;;8.18;;
42140;SDS011;27809;51.864;5.646;2022-09-12T09:47:44;10.38;;;6.25;;
42140;SDS011;27809;51.864;5.646;2022-09-12T09:50:14;10.15;;;5.93;;
42140;SDS011;27809;51.864;5.646;2022-09-12T09:52:40;10.18;;;7.05;;
42140;SDS011;27809;51.864;5.646;2022-09-12T09:55:09;11.77;;;5.80;;
42140;SDS011;27809;51.864;5.646;2022-09-12T09:57:39;9.02;;;6.22;;
42140;SDS011;27809;51.864;5.646;2022-09-12T10:00:18;12.07;;;6.85;;
42140;SDS011;27809;51.864;5.646;2022-09-12T10:05:30;6.90;;;4.85;;
42140;SDS011;27809;51.864;5.646;2022-09-12T10:07:58;7.75;;;4.95;;
42140;SDS011;27809;51.864;5.646;2022-09-12T10:10:24;8.00;;;4.63;;
42140;SDS011;27809;51.864;5.646;2022-09-12T10:12:50;10.57;;;3.50;;
42140;SDS011;27809;51.864;5.646;2022-09-12T10:15:29;5.30;;;3.70;;
42140;SDS011;27809;51.864;5.646;2022-09-12T10:17:55;4.60;;;3.45;;
42140;SDS011;27809;51.864;5.646;2022-09-12T10:20:33;5.03;;;1.60;;
42140;SDS011;27809;51.864;5.646;2022-09-12T10:25:53;3.63;;;2.85;;
42140;SDS011;27809;51.864;5.646;2022-09-12T10:28:22;8.38;;;3.25;;
42140;SDS011;27809;51.864;5.646;2022-09-12T10:30:54;5.78;;;2.70;;
42140;SDS011;27809;51.864;5.646;2022-09-12T10:33:20;3.83;;;2.63;;
42140;SDS011;27809;51.864;5.646;2022-09-12T10:35:48;3.58;;;2.47;;
42140;SDS011;27809;51.864;5.646;2022-09-12T10:40:55;3.65;;;2.53;;
42140;SDS011;27809;51.864;5.646;2022-09-12T10:43:34;5.60;;;3.58;;
42140;SDS011;27809;51.864;5.646;2022-09-12T10:48:44;4.75;;;2.30;;
42140;SDS011;27809;51.864;5.646;2022-09-12T10:53:48;6.28;;;3.90;;
42140;SDS011;27809;51.864;5.646;2022-09-12T10:56:18;5.95;;;2.75;;
42140;SDS011;27809;51.864;5.646;2022-09-12T11:10:36;1.63;;;1.13;;
42140;SDS011;27809;51.864;5.646;2022-09-12T11:16:31;5.38;;;1.58;;
42140;SDS011;27809;51.864;5.646;2022-09-12T11:19:19;3.67;;;2.03;;
42140;SDS011;27809;51.864;5.646;2022-09-12T11:22:00;14.70;;;1.75;;
42140;SDS011;27809;51.864;5.646;2022-09-12T11:24:51;4.82;;;1.55;;
42140;SDS011;27809;51.864;5.646;2022-09-12T11:30:18;3.00;;;1.73;;
42140;SDS011;27809;51.864;5.646;2022-09-12T11:32:50;3.85;;;2.20;;
42140;SDS011;27809;51.864;5.646;2022-09-12T11:35:24;4.55;;;2.22;;
42140;SDS011;27809;51.864;5.646;2022-09-12T11:40:51;1.88;;;1.50;;
42140;SDS011;27809;51.864;5.646;2022-09-12T11:57:10;3.08;;;1.83;;
42140;SDS011;27809;51.864;5.646;2022-09-12T12:02:42;4.10;;;1.92;;
42140;SDS011;27809;51.864;5.646;2022-09-12T12:07:54;2.25;;;0.95;;
42140;SDS011;27809;51.864;5.646;2022-09-12T12:10:22;7.95;;;0.80;;
42140;SDS011;27809;51.864;5.646;2022-09-12T12:12:55;2.30;;;0.70;;
42140;SDS011;27809;51.864;5.646;2022-09-12T12:15:22;3.05;;;1.70;;
42140;SDS011;27809;51.864;5.646;2022-09-12T12:18:02;3.65;;;1.55;;
42140;SDS011;27809;51.864;5.646;2022-09-12T12:20:31;3.20;;;1.40;;
42140;SDS011;27809;51.864;5.646;2022-09-12T12:22:57;4.47;;;1.77;;
42140;SDS011;27809;51.864;5.646;2022-09-12T12:25:25;6.07;;;1.30;;
42140;SDS011;27809;51.864;5.646;2022-09-12T12:28:03;1.85;;;0.82;;
42140;SDS011;27809;51.864;5.646;2022-09-12T12:38:27;5.15;;;2.58;;
42140;SDS011;27809;51.864;5.646;2022-09-12T12:43:42;5.57;;;1.65;;
42140;SDS011;27809;51.864;5.646;2022-09-12T12:46:12;4.55;;;2.20;;
42140;SDS011;27809;51.864;5.646;2022-09-12T12:48:43;5.68;;;1.80;;
42140;SDS011;27809;51.864;5.646;2022-09-12T12:53:53;2.10;;;1.30;;
42140;SDS011;27809;51.864;5.646;2022-09-12T12:56:27;4.07;;;1.10;;
42140;SDS011;27809;51.864;5.646;2022-09-12T12:59:02;1.92;;;1.08;;
42140;SDS011;27809;51.864;5.646;2022-09-12T13:01:36;1.33;;;0.90;;
42140;SDS011;27809;51.864;5.646;2022-09-12T13:04:13;1.83;;;1.33;;
42140;SDS011;27809;51.864;5.646;2022-09-12T13:06:43;1.92;;;0.73;;
42140;SDS011;27809;51.864;5.646;2022-09-12T13:12:08;2.72;;;0.77;;
42140;SDS011;27809;51.864;5.646;2022-09-12T13:14:46;1.55;;;1.30;;
42140;SDS011;27809;51.864;5.646;2022-09-12T13:17:17;2.35;;;1.30;;
42140;SDS011;27809;51.864;5.646;2022-09-12T13:22:38;5.32;;;0.93;;
42140;SDS011;27809;51.864;5.646;2022-09-12T13:30:38;2.53;;;0.80;;
42140;SDS011;27809;51.864;5.646;2022-09-12T13:33:08;2.30;;;1.10;;
42140;SDS011;27809;51.864;5.646;2022-09-12T13:35:55;2.55;;;0.93;;
42140;SDS011;27809;51.864;5.646;2022-09-12T13:38:45;1.85;;;0.82;;
42140;SDS011;27809;51.864;5.646;2022-09-12T13:44:13;3.13;;;1.35;;
42140;SDS011;27809;51.864;5.646;2022-09-12T13:46:41;1.15;;;0.70;;
42140;SDS011;27809;51.864;5.646;2022-09-12T13:49:20;2.33;;;0.93;;
42140;SDS011;27809;51.864;5.646;2022-09-12T13:51:58;3.78;;;1.20;;
42140;SDS011;27809;51.864;5.646;2022-09-12T13:54:27;1.10;;;0.60;;
42140;SDS011;27809;51.864;5.646;2022-09-12T13:56:52;4.88;;;1.23;;
42140;SDS011;27809;51.864;5.646;2022-09-12T13:59:18;2.25;;;1.23;;
42140;SDS011;27809;51.864;5.646;2022-09-12T14:01:45;2.55;;;1.42;;
42140;SDS011;27809;51.864;5.646;2022-09-12T14:04:18;1.27;;;0.80;;
42140;SDS011;27809;51.864;5.646;2022-09-12T14:07:09;3.50;;;0.75;;
42140;SDS011;27809;51.864;5.646;2022-09-12T14:09:39;1.50;;;0.77;;
42140;SDS011;27809;51.864;5.646;2022-09-12T14:12:23;2.47;;;0.88;;
42140;SDS011;27809;51.864;5.646;2022-09-12T14:14:53;2.13;;;1.10;;
42140;SDS011;27809;51.864;5.646;2022-09-12T14:17:23;1.75;;;0.60;;
42140;SDS011;27809;51.864;5.646;2022-09-12T14:19:55;1.88;;;0.90;;
42140;SDS011;27809;51.864;5.646;2022-09-12T14:22:23;1.77;;;0.70;;
42140;SDS011;27809;51.864;5.646;2022-09-12T14:24:53;2.00;;;1.10;;
42140;SDS011;27809;51.864;5.646;2022-09-12T14:27:23;1.48;;;0.63;;
42140;SDS011;27809;51.864;5.646;2022-09-12T14:29:53;2.30;;;1.08;;
42140;SDS011;27809;51.864;5.646;2022-09-12T14:32:27;4.45;;;1.15;;
42140;SDS011;27809;51.864;5.646;2022-09-12T14:35:06;1.17;;;0.65;;
42140;SDS011;27809;51.864;5.646;2022-09-12T14:37:42;2.28;;;0.80;;
42140;SDS011;27809;51.864;5.646;2022-09-12T14:40:14;1.58;;;0.60;;
42140;SDS011;27809;51.864;5.646;2022-09-12T14:42:42;1.98;;;0.70;;
42140;SDS011;27809;51.864;5.646;2022-09-12T14:45:13;3.03;;;0.90;;
42140;SDS011;27809;51.864;5.646;2022-09-12T14:47:49;1.77;;;1.00;;
42140;SDS011;27809;51.864;5.646;2022-09-12T14:50:26;1.80;;;1.00;;
42140;SDS011;27809;51.864;5.646;2022-09-12T14:55:50;2.10;;;0.80;;
42140;SDS011;27809;51.864;5.646;2022-09-12T14:58:22;2.53;;;0.93;;
42140;SDS011;27809;51.864;5.646;2022-09-12T15:03:34;1.63;;;0.77;;
42140;SDS011;27809;51.864;5.646;2022-09-12T15:08:54;2.42;;;1.13;;
42140;SDS011;27809;51.864;5.646;2022-09-12T15:11:26;5.60;;;1.52;;
42140;SDS011;27809;51.864;5.646;2022-09-12T15:13:52;1.80;;;1.00;;
42140;SDS011;27809;51.864;5.646;2022-09-12T15:16:17;1.80;;;0.82;;
42140;SDS011;27809;51.864;5.646;2022-09-12T15:18:43;3.70;;;1.02;;
42140;SDS011;27809;51.864;5.646;2022-09-12T15:21:11;3.25;;;0.93;;
42140;SDS011;27809;51.864;5.646;2022-09-12T15:23:41;1.67;;;0.85;;
42140;SDS011;27809;51.864;5.646;2022-09-12T15:26:13;3.72;;;1.35;;
42140;SDS011;27809;51.864;5.646;2022-09-12T15:28:46;38.13;;;25.85;;
42140;SDS011;27809;51.864;5.646;2022-09-12T15:31:26;5.90;;;2.97;;
42140;SDS011;27809;51.864;5.646;2022-09-12T15:33:53;3.45;;;1.60;;
42140;SDS011;27809;51.864;5.646;2022-09-12T15:36:21;25.10;;;10.18;;
42140;SDS011;27809;51.864;5.646;2022-09-12T15:38:48;83.30;;;29.33;;
42140;SDS011;27809;51.864;5.646;2022-09-12T15:41:15;10.88;;;4.20;;
42140;SDS011;27809;51.864;5.646;2022-09-12T15:43:43;6.22;;;2.60;;
42140;SDS011;27809;51.864;5.646;2022-09-12T15:46:13;7.43;;;3.15;;
42140;SDS011;27809;51.864;5.646;2022-09-12T15:48:41;12.00;;;4.85;;
42140;SDS011;27809;51.864;5.646;2022-09-12T15:51:11;46.03;;;18.00;;
42140;SDS011;27809;51.864;5.646;2022-09-12T15:53:38;57.38;;;22.42;;
42140;SDS011;27809;51.864;5.646;2022-09-12T15:56:03;54.67;;;20.98;;
42140;SDS011;27809;51.864;5.646;2022-09-12T15:58:29;27.42;;;10.50;;
42140;SDS011;27809;51.864;5.646;2022-09-12T16:00:54;42.70;;;14.80;;
42140;SDS011;27809;51.864;5.646;2022-09-12T16:03:22;53.97;;;21.10;;
42140;SDS011;27809;51.864;5.646;2022-09-12T16:05:54;74.97;;;25.67;;
42140;SDS011;27809;51.864;5.646;2022-09-12T16:08:21;80.43;;;26.23;;
42140;SDS011;27809;51.864;5.646;2022-09-12T16:10:48;39.75;;;15.10;;
42140;SDS011;27809;51.864;5.646;2022-09-12T16:13:17;44.60;;;15.88;;
42140;SDS011;27809;51.864;5.646;2022-09-12T16:15:42;44.30;;;18.10;;
42140;SDS011;27809;51.864;5.646;2022-09-12T16:18:08;40.65;;;14.55;;
42140;SDS011;27809;51.864;5.646;2022-09-12T16:20:33;48.80;;;21.75;;
42140;SDS011;27809;51.864;5.646;2022-09-12T16:22:59;43.85;;;15.18;;
42140;SDS011;27809;51.864;5.646;2022-09-12T16:25:25;56.28;;;18.10;;
42140;SDS011;27809;51.864;5.646;2022-09-12T16:27:50;58.05;;;19.08;;
42140;SDS011;27809;51.864;5.646;2022-09-12T16:30:16;44.58;;;17.00;;
42140;SDS011;27809;51.864;5.646;2022-09-12T16:32:41;55.40;;;15.60;;
42140;SDS011;27809;51.864;5.646;2022-09-12T16:35:07;36.83;;;13.70;;
42140;SDS011;27809;51.864;5.646;2022-09-12T16:37:33;51.45;;;17.13;;
42140;SDS011;27809;51.864;5.646;2022-09-12T16:39:59;4.78;;;1.75;;
42140;SDS011;27809;51.864;5.646;2022-09-12T16:42:25;2.42;;;1.05;;
42140;SDS011;27809;51.864;5.646;2022-09-12T16:44:51;2.50;;;0.65;;
42140;SDS011;27809;51.864;5.646;2022-09-12T16:47:16;1.33;;;0.60;;
42140;SDS011;27809;51.864;5.646;2022-09-12T16:49:42;2.60;;;0.55;;
42140;SDS011;27809;51.864;5.646;2022-09-12T16:52:08;1.20;;;0.40;;
42140;SDS011;27809;51.864;5.646;2022-09-12T16:54:34;1.58;;;1.02;;
42140;SDS011;27809;51.864;5.646;2022-09-12T16:57:00;3.28;;;0.52;;
42140;SDS011;27809;51.864;5.646;2022-09-12T16:59:26;1.60;;;0.70;;
42140;SDS011;27809;51.864;5.646;2022-09-12T17:01:52;7.63;;;1.02;;
42140;SDS011;27809;51.864;5.646;2022-09-12T17:04:17;1.42;;;0.77;;
42140;SDS011;27809;51.864;5.646;2022-09-12T17:06:43;3.80;;;0.80;;
42140;SDS011;27809;51.864;5.646;2022-09-12T17:09:09;1.45;;;0.47;;